sensor_id;sensor_type;location;lat;lon;timestamp;pressure;altitude;pressure_sealevel;temperature;humidity
69717;BME280;67420;46.144;19.666;2023-12-22T00:03:29;97947.28;;;21.33;51.86
69717;BME280;67420;46.144;19.666;2023-12-22T00:13:31;97890.63;;;21.37;51.96
69717;BME280;67420;46.144;19.666;2023-12-22T00:23:36;97927.97;;;21.38;52.06
69717;BME280;67420;46.144;19.666;2023-12-22T00:33:38;97921.59;;;21.39;51.62
69717;BME280;67420;46.144;19.666;2023-12-22T00:43:40;97926.75;;;21.41;51.91
69717;BME280;67420;46.144;19.666;2023-12-22T00:53:42;97911.31;;;21.43;51.84
69717;BME280;67420;46.144;19.666;2023-12-22T01:03:44;97913.63;;;21.46;51.96
69717;BME280;67420;46.144;19.666;2023-12-22T01:13:45;97878.06;;;21.37;51.58
69717;BME280;67420;46.144;19.666;2023-12-22T01:23:47;97870.34;;;21.49;51.74
69717;BME280;67420;46.144;19.666;2023-12-22T01:33:49;97886.44;;;21.49;51.40
69717;BME280;67420;46.144;19.666;2023-12-22T01:43:51;98016.56;;;21.51;51.39
69717;BME280;67420;46.144;19.666;2023-12-22T01:53:53;98107.69;;;21.51;51.88
69717;BME280;67420;46.144;19.666;2023-12-22T02:03:55;98104.91;;;21.45;51.66
69717;BME280;67420;46.144;19.666;2023-12-22T02:13:58;98088.19;;;21.43;51.55
69717;BME280;67420;46.144;19.666;2023-12-22T02:24:00;98089.09;;;21.35;51.96
69717;BME280;67420;46.144;19.666;2023-12-22T02:34:07;98108.31;;;21.39;51.79
69717;BME280;67420;46.144;19.666;2023-12-22T02:44:09;98125.88;;;21.41;52.15
69717;BME280;67420;46.144;19.666;2023-12-22T02:54:11;98148.81;;;21.44;51.71
69717;BME280;67420;46.144;19.666;2023-12-22T03:04:13;98070.91;;;21.45;52.00
69717;BME280;67420;46.144;19.666;2023-12-22T03:14:15;97989.75;;;21.51;51.52
69717;BME280;67420;46.144;19.666;2023-12-22T03:24:17;98052.47;;;21.57;51.83
69717;BME280;67420;46.144;19.666;2023-12-22T03:34:27;98140.38;;;21.61;51.56
69717;BME280;67420;46.144;19.666;2023-12-22T03:44:29;98103.13;;;21.66;51.46
69717;BME280;67420;46.144;19.666;2023-12-22T03:54:30;98099.59;;;21.66;51.69
69717;BME280;67420;46.144;19.666;2023-12-22T04:04:32;98081.41;;;21.61;51.62
69717;BME280;67420;46.144;19.666;2023-12-22T04:14:34;98119.03;;;21.68;51.95
69717;BME280;67420;46.144;19.666;2023-12-22T04:24:36;98124.19;;;21.70;51.89
69717;BME280;67420;46.144;19.666;2023-12-22T04:34:38;98120.69;;;21.69;51.64
69717;BME280;67420;46.144;19.666;2023-12-22T04:44:40;98092.84;;;21.70;51.79
69717;BME280;67420;46.144;19.666;2023-12-22T04:54:42;98098.41;;;21.68;51.71
69717;BME280;67420;46.144;19.666;2023-12-22T05:04:44;98135.56;;;21.72;51.68
69717;BME280;67420;46.144;19.666;2023-12-22T05:14:46;98145.00;;;21.67;51.71
69717;BME280;67420;46.144;19.666;2023-12-22T05:24:48;98141.31;;;21.68;51.76
69717;BME280;67420;46.144;19.666;2023-12-22T05:34:50;98194.09;;;21.68;51.90
69717;BME280;67420;46.144;19.666;2023-12-22T05:44:52;98192.88;;;21.71;51.90
69717;BME280;67420;46.144;19.666;2023-12-22T05:54:53;98215.28;;;21.78;51.70
69717;BME280;67420;46.144;19.666;2023-12-22T06:04:56;98267.78;;;21.87;52.59
69717;BME280;67420;46.144;19.666;2023-12-22T06:14:58;98279.69;;;21.84;52.59
69717;BME280;67420;46.144;19.666;2023-12-22T06:25:00;98323.19;;;21.80;52.77
69717;BME280;67420;46.144;19.666;2023-12-22T06:35:03;98347.13;;;21.81;52.45
69717;BME280;67420;46.144;19.666;2023-12-22T06:45:05;98368.38;;;21.83;52.10
69717;BME280;67420;46.144;19.666;2023-12-22T06:55:07;98373.94;;;21.81;52.53
69717;BME280;67420;46.144;19.666;2023-12-22T07:15:11;98347.13;;;21.81;52.33
69717;BME280;67420;46.144;19.666;2023-12-22T07:25:13;98352.69;;;21.80;52.46
69717;BME280;67420;46.144;19.666;2023-12-22T07:35:15;98365.44;;;21.78;52.61
69717;BME280;67420;46.144;19.666;2023-12-22T07:45:19;98379.69;;;21.78;52.11
69717;BME280;67420;46.144;19.666;2023-12-22T07:55:21;98351.28;;;21.84;51.95
69717;BME280;67420;46.144;19.666;2023-12-22T08:05:23;98402.06;;;21.85;52.08
69717;BME280;67420;46.144;19.666;2023-12-22T08:15:25;98453.47;;;21.89;52.23
69717;BME280;67420;46.144;19.666;2023-12-22T08:25:37;98408.44;;;21.84;52.27
69717;BME280;67420;46.144;19.666;2023-12-22T08:35:39;98430.72;;;21.85;51.95
69717;BME280;67420;46.144;19.666;2023-12-22T08:45:41;98384.94;;;21.86;51.66
69717;BME280;67420;46.144;19.666;2023-12-22T08:55:43;98404.72;;;21.85;52.49
69717;BME280;67420;46.144;19.666;2023-12-22T09:05:45;98415.84;;;21.82;52.10
69717;BME280;67420;46.144;19.666;2023-12-22T09:15:48;98406.31;;;21.80;51.90
69717;BME280;67420;46.144;19.666;2023-12-22T09:25:50;98402.63;;;21.81;51.99
69717;BME280;67420;46.144;19.666;2023-12-22T09:35:53;98404.06;;;21.83;51.99
69717;BME280;67420;46.144;19.666;2023-12-22T09:45:55;98388.81;;;21.84;52.01
69717;BME280;67420;46.144;19.666;2023-12-22T09:55:58;98389.84;;;21.83;52.10
69717;BME280;67420;46.144;19.666;2023-12-22T10:06:01;98409.19;;;21.78;52.38
69717;BME280;67420;46.144;19.666;2023-12-22T10:16:05;98390.41;;;21.78;52.17
69717;BME280;67420;46.144;19.666;2023-12-22T10:26:11;98368.59;;;21.81;52.17
69717;BME280;67420;46.144;19.666;2023-12-22T10:36:14;98375.81;;;21.81;51.97
69717;BME280;67420;46.144;19.666;2023-12-22T10:46:17;98342.13;;;21.78;52.29
69717;BME280;67420;46.144;19.666;2023-12-22T10:56:20;98358.75;;;21.74;51.93
69717;BME280;67420;46.144;19.666;2023-12-22T11:06:24;98340.53;;;21.69;51.76
69717;BME280;67420;46.144;19.666;2023-12-22T11:16:29;98361.34;;;21.67;51.51
69717;BME280;67420;46.144;19.666;2023-12-22T11:26:32;98353.09;;;21.54;51.55
69717;BME280;67420;46.144;19.666;2023-12-22T11:36:34;98372.69;;;21.54;51.45
69717;BME280;67420;46.144;19.666;2023-12-22T11:46:38;98369.41;;;21.44;51.37
69717;BME280;67420;46.144;19.666;2023-12-22T11:56:40;98379.59;;;21.49;50.87
69717;BME280;67420;46.144;19.666;2023-12-22T12:06:42;98382.28;;;21.49;51.45
69717;BME280;67420;46.144;19.666;2023-12-22T12:16:44;98385.13;;;21.47;51.03
69717;BME280;67420;46.144;19.666;2023-12-22T12:26:46;98381.78;;;21.45;50.68
69717;BME280;67420;46.144;19.666;2023-12-22T12:36:48;98373.03;;;21.51;50.75
69717;BME280;67420;46.144;19.666;2023-12-22T12:46:55;98374.16;;;21.57;50.53
69717;BME280;67420;46.144;19.666;2023-12-22T12:56:58;98374.81;;;21.59;50.73
69717;BME280;67420;46.144;19.666;2023-12-22T13:06:59;98394.03;;;21.62;50.58
69717;BME280;67420;46.144;19.666;2023-12-22T13:17:01;98378.44;;;21.66;49.94
69717;BME280;67420;46.144;19.666;2023-12-22T13:27:04;98370.56;;;21.64;50.51
69717;BME280;67420;46.144;19.666;2023-12-22T13:37:08;98376.94;;;21.63;50.04
69717;BME280;67420;46.144;19.666;2023-12-22T13:47:10;98383.31;;;21.62;50.22
69717;BME280;67420;46.144;19.666;2023-12-22T13:57:22;98387.75;;;21.55;49.89
69717;BME280;67420;46.144;19.666;2023-12-22T14:07:26;98402.53;;;21.51;49.74
69717;BME280;67420;46.144;19.666;2023-12-22T14:17:28;98386.81;;;21.48;49.85
69717;BME280;67420;46.144;19.666;2023-12-22T14:27:33;98419.81;;;21.49;49.95
69717;BME280;67420;46.144;19.666;2023-12-22T14:37:35;98435.88;;;21.49;50.32
69717;BME280;67420;46.144;19.666;2023-12-22T14:47:38;98456.63;;;21.55;50.31
69717;BME280;67420;46.144;19.666;2023-12-22T14:57:40;98457.25;;;21.57;50.15
69717;BME280;67420;46.144;19.666;2023-12-22T15:07:42;98452.72;;;21.57;49.64
69717;BME280;67420;46.144;19.666;2023-12-22T15:17:45;98464.47;;;21.56;50.25
69717;BME280;67420;46.144;19.666;2023-12-22T15:27:47;98474.81;;;21.59;49.72
69717;BME280;67420;46.144;19.666;2023-12-22T15:37:49;98444.09;;;21.47;48.52
69717;BME280;67420;46.144;19.666;2023-12-22T15:47:52;98469.88;;;21.25;49.27
69717;BME280;67420;46.144;19.666;2023-12-22T15:57:54;98479.94;;;21.15;48.68
69717;BME280;67420;46.144;19.666;2023-12-22T16:07:56;98440.75;;;21.14;49.14
69717;BME280;67420;46.144;19.666;2023-12-22T16:18:04;98462.50;;;21.27;48.78
69717;BME280;67420;46.144;19.666;2023-12-22T16:28:06;98469.81;;;21.33;48.93
69717;BME280;67420;46.144;19.666;2023-12-22T16:38:08;98481.66;;;21.39;48.60
69717;BME280;67420;46.144;19.666;2023-12-22T16:48:10;98466.25;;;21.41;48.71
69717;BME280;67420;46.144;19.666;2023-12-22T16:58:12;98479.66;;;21.41;48.58
69717;BME280;67420;46.144;19.666;2023-12-22T20:55:11;98593.44;;;21.30;49.18
69717;BME280;67420;46.144;19.666;2023-12-22T21:05:14;98587.25;;;21.30;49.52
69717;BME280;67420;46.144;19.666;2023-12-22T21:15:18;98572.19;;;21.29;49.56
69717;BME280;67420;46.144;19.666;2023-12-22T21:25:20;98548.25;;;21.27;49.47
69717;BME280;67420;46.144;19.666;2023-12-22T21:35:22;98518.75;;;21.27;49.13
69717;BME280;67420;46.144;19.666;2023-12-22T21:45:24;98524.28;;;21.26;48.97
69717;BME280;67420;46.144;19.666;2023-12-22T21:55:27;98510.72;;;21.27;49.30
69717;BME280;67420;46.144;19.666;2023-12-22T22:05:29;98493.31;;;21.23;49.75
69717;BME280;67420;46.144;19.666;2023-12-22T22:15:31;98491.47;;;21.24;49.54
69717;BME280;67420;46.144;19.666;2023-12-22T22:25:33;98484.63;;;21.21;49.53
69717;BME280;67420;46.144;19.666;2023-12-22T22:35:40;98453.47;;;21.20;49.57
69717;BME280;67420;46.144;19.666;2023-12-22T22:45:42;98426.84;;;21.19;49.41
69717;BME280;67420;46.144;19.666;2023-12-22T22:55:44;98412.59;;;21.18;49.72
69717;BME280;67420;46.144;19.666;2023-12-22T23:05:46;98368.06;;;21.17;49.17
69717;BME280;67420;46.144;19.666;2023-12-22T23:15:48;98359.03;;;21.18;49.52
69717;BME280;67420;46.144;19.666;2023-12-22T23:25:50;98382.31;;;21.18;49.14
69717;BME280;67420;46.144;19.666;2023-12-22T23:35:52;98347.81;;;21.15;49.33
69717;BME280;67420;46.144;19.666;2023-12-22T23:45:55;98317.34;;;21.16;49.88
69717;BME280;67420;46.144;19.666;2023-12-22T23:55:57;98361.88;;;21.17;49.66
